To NAV CANADA Home Page Login to a new session Search on AWWS site Feedback and Comments Disclaimer Vers la page française équivalente Tips FAQ What's new on the site To the Forecasts and Observations / NOTAM section To "File a Flight Plan" website Publications and other links Update of the User's profile FIC Telephone Numbers My Weather Data Folder Route Weather Data Regional Weather Data Local Weather Data To the Forecasts and Observations / NOTAM section
Request Generated 02/13/2016 at 12:47:15 UTC . Weather information available at that time is displayed.

METAR/TAF

REGINA/REGINA INTL/SK    

METAR CYQR 131200Z 14023G32KT 15SM -SN FEW045 OVC060 M12/M15 A3003
RMK SC2SC6 SLP217=
METAR CYQR 131100Z 14020G29KT 15SM -SN FEW040 OVC059 M12/M15 A3007
RMK SC2SC6 SLP233=
METAR CYQR 131000Z 13022G29KT 15SM -SN FEW050 OVC071 M13/M16 A3011
RMK SC1AC7 PRESFR SLP245=

TAF CYQR 131138Z 1312/1412 13020G30KT P6SM -SN BKN040 OVC080 TEMPO
1312/1316 2SM -SN SCT008 BKN020 OVC040
FM131600 14020G30KT 6SM -SN SCT008 OVC012 TEMPO 1316/1321 2SM -SN
OVC008
BECMG 1319/1321 13015G25KT
FM132100 13015G25KT P6SM -SN OVC008 PROB40 1321/1402 3SM -FZDZ BR
OVC005
FM140200 31015G25KT 5SM -SN BR OVC006 PROB30 1402/1407 2SM -FZDZ
BR OVC004
FM140700 28012G22KT 2SM BR OVC005
RMK NXT FCST BY 131800Z=
Your time UTC time
Weather data provided by Environment Canada and NAV CANADA